JST70 YSCB-YSSY
Flight info
| Callsign | JST70 |
|---|---|
| Flight time | 0h 29m |
| Altitude | 24000 |
| Route | CULIN Y59 RIVET |
| Aircraft | A320/M-SDE3FGHIRWY/LB1 |
Departure
| Time | 2026-04-25 08:35 |
|---|---|
| Airport | Canberra Airport (YSCB) |
Arrival
| Time | 2026-04-25 09:05 |
|---|---|
| Airport | Sydney Kingsford Smith International Airport (YSSY) |
| Time | Latitude | Longitude | Altitude | Speed | Heading |
|---|---|---|---|---|---|
| 2026-04-25 08:04 | -35.30756 | 149.19140 | 1880 ft | 0 kts | 259° |
| 2026-04-25 08:12 | -35.30757 | 149.19137 | 1880 ft | 0 kts | 259° |
| 2026-04-25 08:24 | -35.30756 | 149.19146 | 1879 ft | 4 kts | 259° |
| 2026-04-25 08:24 | -35.30751 | 149.19179 | 1879 ft | 4 kts | 259° |
| 2026-04-25 08:24 | -35.30746 | 149.19211 | 1877 ft | 4 kts | 253° |
| 2026-04-25 08:25 | -35.30733 | 149.19234 | 1879 ft | 4 kts | 200° |
| 2026-04-25 08:25 | -35.30712 | 149.19239 | 1879 ft | 1 kts | 180° |
| 2026-04-25 08:25 | -35.30708 | 149.19239 | 1879 ft | 0 kts | 180° |
| 2026-04-25 08:28 | -35.30712 | 149.19239 | 1879 ft | 2 kts | 180° |
| 2026-04-25 08:28 | -35.30730 | 149.19239 | 1879 ft | 4 kts | 180° |
| 2026-04-25 08:28 | -35.30761 | 149.19239 | 1879 ft | 5 kts | 180° |
| 2026-04-25 08:28 | -35.30804 | 149.19240 | 1879 ft | 7 kts | 179° |
| 2026-04-25 08:29 | -35.30860 | 149.19240 | 1879 ft | 9 kts | 180° |
| 2026-04-25 08:29 | -35.30929 | 149.19239 | 1877 ft | 11 kts | 180° |
| 2026-04-25 08:29 | -35.31009 | 149.19239 | 1879 ft | 12 kts | 180° |
| 2026-04-25 08:29 | -35.31101 | 149.19239 | 1877 ft | 14 kts | 180° |
| 2026-04-25 08:30 | -35.31205 | 149.19239 | 1880 ft | 16 kts | 180° |
| 2026-04-25 08:30 | -35.31320 | 149.19239 | 1880 ft | 17 kts | 180° |
| 2026-04-25 08:30 | -35.31403 | 149.19245 | 1880 ft | 9 kts | 161° |
| 2026-04-25 08:30 | -35.31453 | 149.19295 | 1880 ft | 10 kts | 127° |
| 2026-04-25 08:31 | -35.31459 | 149.19306 | 1880 ft | 1 kts | 120° |
| 2026-04-25 08:31 | -35.31460 | 149.19309 | 1880 ft | 0 kts | 117° |
| 2026-04-25 08:33 | -35.31461 | 149.19312 | 1880 ft | 2 kts | 116° |
| 2026-04-25 08:33 | -35.31469 | 149.19382 | 1880 ft | 12 kts | 90° |
| 2026-04-25 08:33 | -35.31417 | 149.19444 | 1880 ft | 12 kts | 6° |
| 2026-04-25 08:33 | -35.31404 | 149.19445 | 1880 ft | 2 kts | 3° |
| 2026-04-25 08:34 | -35.31399 | 149.19445 | 1877 ft | 0 kts | 2° |
| 2026-04-25 08:34 | -35.31387 | 149.19445 | 1880 ft | 7 kts | 1° |
| 2026-04-25 08:34 | -35.31091 | 149.19446 | 1878 ft | 76 kts | 360° |
| 2026-04-25 08:34 | -35.30366 | 149.19443 | 1880 ft | 129 kts | 360° |
| 2026-04-25 08:35 | -35.29339 | 149.19445 | 2037 ft | 156 kts | 1° |
| 2026-04-25 08:35 | -35.28265 | 149.19521 | 2625 ft | 159 kts | 7° |
| 2026-04-25 08:35 | -35.27124 | 149.19674 | 3202 ft | 165 kts | 5° |
| 2026-04-25 08:35 | -35.25969 | 149.19821 | 3670 ft | 177 kts | 5° |
| 2026-04-25 08:36 | -35.24671 | 149.19981 | 3934 ft | 198 kts | 5° |
| 2026-04-25 08:36 | -35.23203 | 149.20162 | 4150 ft | 227 kts | 5° |
| 2026-04-25 08:36 | -35.21506 | 149.20370 | 4470 ft | 256 kts | 5° |
| 2026-04-25 08:36 | -35.19658 | 149.20587 | 5071 ft | 270 kts | 5° |
| 2026-04-25 08:37 | -35.17801 | 149.20799 | 6113 ft | 267 kts | 5° |
| 2026-04-25 08:37 | -35.15966 | 149.21001 | 7129 ft | 264 kts | 5° |
| 2026-04-25 08:37 | -35.14115 | 149.21204 | 7859 ft | 273 kts | 5° |
| 2026-04-25 08:37 | -35.12230 | 149.21431 | 8545 ft | 281 kts | 8° |
| 2026-04-25 08:38 | -35.10326 | 149.22055 | 9323 ft | 286 kts | 21° |
| 2026-04-25 08:38 | -35.08463 | 149.22946 | 10133 ft | 290 kts | 21° |
| 2026-04-25 08:38 | -35.06513 | 149.23870 | 10469 ft | 312 kts | 21° |
| 2026-04-25 08:38 | -35.04412 | 149.24858 | 10713 ft | 333 kts | 20° |
| 2026-04-25 08:39 | -35.02218 | 149.25881 | 11269 ft | 340 kts | 20° |
| 2026-04-25 08:39 | -34.99996 | 149.26913 | 11950 ft | 344 kts | 20° |
| 2026-04-25 08:39 | -34.98500 | 149.27607 | 12422 ft | 347 kts | 20° |
| 2026-04-25 08:39 | -34.95466 | 149.29016 | 13331 ft | 351 kts | 20° |
| 2026-04-25 08:40 | -34.93911 | 149.29740 | 13792 ft | 354 kts | 20° |
| 2026-04-25 08:40 | -34.91636 | 149.30800 | 14414 ft | 357 kts | 20° |
| 2026-04-25 08:40 | -34.89295 | 149.31891 | 15013 ft | 360 kts | 20° |
| 2026-04-25 08:40 | -34.86942 | 149.32988 | 15613 ft | 363 kts | 20° |
| 2026-04-25 08:41 | -34.84574 | 149.34093 | 16204 ft | 366 kts | 20° |
| 2026-04-25 08:41 | -34.82184 | 149.35206 | 16787 ft | 369 kts | 20° |
| 2026-04-25 08:41 | -34.79779 | 149.36325 | 17374 ft | 372 kts | 21° |
| 2026-04-25 08:41 | -34.77372 | 149.37520 | 17952 ft | 375 kts | 26° |
| 2026-04-25 08:42 | -34.75151 | 149.39217 | 18530 ft | 378 kts | 38° |
| 2026-04-25 08:42 | -34.73255 | 149.41442 | 19048 ft | 381 kts | 50° |
| 2026-04-25 08:42 | -34.71760 | 149.44115 | 19561 ft | 384 kts | 62° |
| 2026-04-25 08:42 | -34.70507 | 149.46999 | 20084 ft | 387 kts | 62° |
| 2026-04-25 08:43 | -34.69246 | 149.49903 | 20605 ft | 390 kts | 62° |
| 2026-04-25 08:43 | -34.67974 | 149.52826 | 21111 ft | 393 kts | 62° |
| 2026-04-25 08:43 | -34.66706 | 149.55734 | 21592 ft | 396 kts | 62° |
| 2026-04-25 08:43 | -34.65411 | 149.58694 | 22074 ft | 399 kts | 62° |
| 2026-04-25 08:44 | -34.64103 | 149.61677 | 22558 ft | 401 kts | 62° |
| 2026-04-25 08:44 | -34.62786 | 149.64678 | 23041 ft | 404 kts | 62° |
| 2026-04-25 08:44 | -34.61463 | 149.67695 | 23505 ft | 406 kts | 63° |
| 2026-04-25 08:44 | -34.60133 | 149.70733 | 23965 ft | 409 kts | 63° |
| 2026-04-25 08:45 | -34.58797 | 149.73792 | 24277 ft | 412 kts | 63° |
| 2026-04-25 08:45 | -34.57451 | 149.76861 | 24355 ft | 412 kts | 63° |
| 2026-04-25 08:45 | -34.56105 | 149.79923 | 24382 ft | 412 kts | 63° |
| 2026-04-25 08:45 | -34.54754 | 149.82994 | 24373 ft | 412 kts | 63° |
| 2026-04-25 08:46 | -34.53404 | 149.86053 | 24377 ft | 412 kts | 63° |
| 2026-04-25 08:46 | -34.52052 | 149.89111 | 24376 ft | 412 kts | 63° |
| 2026-04-25 08:46 | -34.50698 | 149.92172 | 24379 ft | 411 kts | 63° |
| 2026-04-25 08:46 | -34.49346 | 149.95230 | 24368 ft | 411 kts | 63° |
| 2026-04-25 08:47 | -34.47996 | 149.98284 | 24376 ft | 411 kts | 63° |
| 2026-04-25 08:47 | -34.46656 | 150.01317 | 24147 ft | 406 kts | 63° |
| 2026-04-25 08:47 | -34.45319 | 150.04341 | 23465 ft | 406 kts | 63° |
| 2026-04-25 08:47 | -34.43985 | 150.07349 | 22866 ft | 404 kts | 62° |
| 2026-04-25 08:48 | -34.42659 | 150.10337 | 22327 ft | 401 kts | 62° |
| 2026-04-25 08:48 | -34.41343 | 150.13298 | 21808 ft | 398 kts | 62° |
| 2026-04-25 08:48 | -34.40036 | 150.16237 | 21300 ft | 395 kts | 62° |
| 2026-04-25 08:48 | -34.38742 | 150.19145 | 20820 ft | 391 kts | 62° |
| 2026-04-25 08:49 | -34.37457 | 150.22028 | 20341 ft | 387 kts | 62° |
| 2026-04-25 08:49 | -34.36180 | 150.24890 | 19838 ft | 384 kts | 63° |
| 2026-04-25 08:49 | -34.34930 | 150.27735 | 19350 ft | 381 kts | 65° |
| 2026-04-25 08:49 | -34.34129 | 150.30715 | 18910 ft | 376 kts | 78° |
| 2026-04-25 08:50 | -34.33559 | 150.33794 | 18359 ft | 374 kts | 78° |
| 2026-04-25 08:50 | -34.32998 | 150.36890 | 17858 ft | 369 kts | 78° |
| 2026-04-25 08:50 | -34.32460 | 150.39908 | 17383 ft | 365 kts | 78° |
| 2026-04-25 08:50 | -34.31939 | 150.42854 | 16915 ft | 361 kts | 78° |
| 2026-04-25 08:51 | -34.31415 | 150.45807 | 16440 ft | 358 kts | 78° |
| 2026-04-25 08:51 | -34.30892 | 150.48736 | 15971 ft | 354 kts | 78° |
| 2026-04-25 08:51 | -34.30371 | 150.51633 | 15508 ft | 351 kts | 78° |
| 2026-04-25 08:51 | -34.29853 | 150.54510 | 15043 ft | 349 kts | 78° |
| 2026-04-25 08:52 | -34.29341 | 150.57354 | 14587 ft | 346 kts | 78° |
| 2026-04-25 08:52 | -34.28826 | 150.60193 | 14123 ft | 344 kts | 78° |
| 2026-04-25 08:52 | -34.28314 | 150.63024 | 13633 ft | 342 kts | 78° |
| 2026-04-25 08:52 | -34.27810 | 150.65821 | 13182 ft | 339 kts | 78° |
| 2026-04-25 08:53 | -34.27309 | 150.68591 | 12736 ft | 336 kts | 78° |
| 2026-04-25 08:53 | -34.26813 | 150.71341 | 12288 ft | 334 kts | 78° |
| 2026-04-25 08:53 | -34.26320 | 150.74071 | 11848 ft | 331 kts | 78° |
| 2026-04-25 08:53 | -34.25829 | 150.76784 | 11420 ft | 329 kts | 78° |
| 2026-04-25 08:54 | -34.25340 | 150.79482 | 10984 ft | 328 kts | 78° |
| 2026-04-25 08:54 | -34.24846 | 150.82193 | 10308 ft | 334 kts | 78° |
| 2026-04-25 08:54 | -34.24360 | 150.84841 | 10143 ft | 322 kts | 78° |
| 2026-04-25 08:54 | -34.23877 | 150.87463 | 10003 ft | 310 kts | 78° |
| 2026-04-25 08:55 | -34.23419 | 150.89966 | 9868 ft | 299 kts | 78° |
| 2026-04-25 08:55 | -34.22978 | 150.92364 | 9705 ft | 291 kts | 78° |
| 2026-04-25 08:55 | -34.22543 | 150.94737 | 9426 ft | 285 kts | 78° |
| 2026-04-25 08:55 | -34.22118 | 150.97052 | 8902 ft | 280 kts | 78° |
| 2026-04-25 08:56 | -34.21694 | 150.99342 | 8326 ft | 278 kts | 77° |
| 2026-04-25 08:56 | -34.21273 | 151.01605 | 7740 ft | 277 kts | 77° |
| 2026-04-25 08:56 | -34.20854 | 151.03873 | 7191 ft | 275 kts | 77° |
| 2026-04-25 08:56 | -34.20436 | 151.06132 | 6618 ft | 274 kts | 77° |
| 2026-04-25 08:57 | -34.20022 | 151.08377 | 6039 ft | 272 kts | 77° |
| 2026-04-25 08:57 | -34.19614 | 151.10584 | 5683 ft | 262 kts | 76° |
| 2026-04-25 08:57 | -34.19230 | 151.12656 | 5560 ft | 243 kts | 76° |
| 2026-04-25 08:57 | -34.18874 | 151.14581 | 5432 ft | 226 kts | 77° |
| 2026-04-25 08:58 | -34.18544 | 151.16362 | 5330 ft | 208 kts | 77° |
| 2026-04-25 08:58 | -34.18239 | 151.18005 | 5040 ft | 197 kts | 76° |
| 2026-04-25 08:58 | -34.17954 | 151.19543 | 4916 ft | 179 kts | 76° |
| 2026-04-25 08:58 | -34.17698 | 151.20920 | 4761 ft | 163 kts | 75° |
| 2026-04-25 08:59 | -34.17274 | 151.22144 | 4478 ft | 156 kts | 49° |
| 2026-04-25 08:59 | -34.16408 | 151.22910 | 4087 ft | 157 kts | 17° |
| 2026-04-25 08:59 | -34.15339 | 151.22989 | 3812 ft | 154 kts | 348° |
| 2026-04-25 08:59 | -34.14304 | 151.22719 | 3583 ft | 150 kts | 348° |
| 2026-04-25 09:00 | -34.13298 | 151.22456 | 3375 ft | 146 kts | 348° |
| 2026-04-25 09:00 | -34.12308 | 151.22198 | 3186 ft | 146 kts | 351° |
| 2026-04-25 09:00 | -34.11317 | 151.21939 | 2992 ft | 147 kts | 350° |
| 2026-04-25 09:00 | -34.10314 | 151.21678 | 2793 ft | 148 kts | 350° |
| 2026-04-25 09:01 | -34.09321 | 151.21419 | 2596 ft | 146 kts | 351° |
| 2026-04-25 09:01 | -34.08327 | 151.21160 | 2409 ft | 146 kts | 351° |
| 2026-04-25 09:01 | -34.07339 | 151.20895 | 2202 ft | 144 kts | 350° |
| 2026-04-25 09:01 | -34.06378 | 151.20647 | 2012 ft | 143 kts | 352° |
| 2026-04-25 09:02 | -34.05402 | 151.20396 | 1834 ft | 140 kts | 352° |
| 2026-04-25 09:02 | -34.04449 | 151.20154 | 1653 ft | 142 kts | 352° |
| 2026-04-25 09:02 | -34.03478 | 151.19909 | 1472 ft | 143 kts | 353° |
| 2026-04-25 09:02 | -34.02495 | 151.19634 | 1169 ft | 147 kts | 350° |
| 2026-04-25 09:03 | -34.01507 | 151.19353 | 990 ft | 145 kts | 353° |
| 2026-04-25 09:03 | -34.00540 | 151.19090 | 811 ft | 140 kts | 353° |
| 2026-04-25 09:03 | -33.99595 | 151.18859 | 732 ft | 138 kts | 354° |
| 2026-04-25 09:03 | -33.98657 | 151.18632 | 643 ft | 137 kts | 355° |
| 2026-04-25 09:04 | -33.97734 | 151.18399 | 419 ft | 137 kts | 351° |
| 2026-04-25 09:04 | -33.96797 | 151.18162 | 173 ft | 140 kts | 351° |
| 2026-04-25 09:04 | -33.95862 | 151.17916 | 36 ft | 129 kts | 352° |
| 2026-04-25 09:04 | -33.95128 | 151.17729 | 28 ft | 86 kts | 348° |
| 2026-04-25 09:05 | -33.94704 | 151.17647 | 29 ft | 44 kts | 357° |
| 2026-04-25 09:05 | -33.94497 | 151.17692 | 30 ft | 25 kts | 19° |
| 2026-04-25 09:05 | -33.94326 | 151.17730 | 30 ft | 25 kts | 354° |
| 2026-04-25 09:05 | -33.94155 | 151.17681 | 29 ft | 26 kts | 346° |
| 2026-04-25 09:06 | -33.93974 | 151.17632 | 29 ft | 27 kts | 348° |
| 2026-04-25 09:06 | -33.93848 | 151.17613 | 29 ft | 11 kts | 34° |
| 2026-04-25 09:06 | -33.93856 | 151.17704 | 29 ft | 12 kts | 87° |
| 2026-04-25 09:06 | -33.93790 | 151.17769 | 30 ft | 14 kts | 16° |
| 2026-04-25 09:07 | -33.93699 | 151.17797 | 30 ft | 4 kts | 14° |
| 2026-04-25 09:07 | -33.93663 | 151.17808 | 30 ft | 7 kts | 14° |
| 2026-04-25 09:07 | -33.93618 | 151.17786 | 30 ft | 9 kts | 306° |
| 2026-04-25 09:07 | -33.93600 | 151.17753 | 30 ft | 1 kts | 302° |
| 2026-04-25 09:08 | -33.93598 | 151.17748 | 30 ft | 0 kts | 301° |